Etusivu
METAR-TAF:

METAR-TAF

Lentoasemat :

Aalborgin lentoasema

Aalborg, Tanska

Leveyspiiri: 57-06N, Pituuspiiri: 009-51E, korkeus merenpinnasta: 3 m

Tämänhetkinen sää

Tämä raportti tehtiin 21 minuuttia sitten, kello 19.50 UTC
Tuuli 14 kn idästä/kaakosta
Lämpötila 12°C
Kosteus 62%
Ilmanpaine 1009 hPa
Näkyvyys 10 km tai enemmän

METAR: EKYT 241950Z AUTO 11014KT 9999 FEW140/// 12/05 Q1009

Aika: 22:11 (20:11 UTC)

Sääennuste

Tämä raportti tehtiin 2 tuntia ja 44 minuuttia sitten, kello 17.27 UTC
Ennuste voimassa 24. päivästä klo 18 UTC - 25. päivään klo 18 UTC
Tuuli 16 kn idästä/kaakosta
Näkyvyys 10 km tai enemmän
Hajonneita pilviä 8000 ft:n korkeudessa
Tulossa
25. päivästä klo 09 UTC - 25. päivään klo 12 UTC
Tuuli 5 kn etelästä/kaakosta

TAF: EKYT 241727Z 2418/2518 11016KT 9999 BKN080 BECMG 2509/2512 15005KT

Säähavainnot ja -ennusteet yli 4000 lentoasemalta (METAR- ja TAF-raportit).

Käytössä olevat sääasemat on merkitty karttaan keltaisilla ja punaisilla pisteillä.

Aseta hiiri pisteen päälle nähdäksesi sääaseman nimen.

Klikkaa sitten nähdäksesi säähavainnot ja -ennusteet.

Kartan vaihtaminen: klikkaa mustalla rastilla varustettuja vihreitä pisteitä, niin voit zoomata sisään; viivalla varustettua vihreää pistettä, niin voit zoomata ulos tai vihreitä nuolia, niin pääset viereisille kartoille.


METAR-TAF: